Corona Range LRC Data

Date Time Air Temperature Relative Humidity Dewpoint Windchill Heat Index Wind Speed Wind Dir. Rain Solar Radiation Soil Temperature
2m 2m 3m 3m 10cm
US/Mountain F % F F F MPH deg in MJ/m^2 F
max avg avg
2021-04-08 00:05:00 52.0 11.2 -0.6 52.0 52.0 8.3 12.1 9.4 268.7 252.9 0.00 0.0000000 63.2
2021-04-08 00:10:00 51.6 11.4 -0.5 51.6 51.6 8.8 10.3 8.0 273.0 253.0 0.00 0.0000000 63.1
2021-04-08 00:15:00 51.1 11.9 0.1 51.1 51.1 5.8 8.8 6.6 236.2 252.7 0.00 0.0000000 63.1
2021-04-08 00:20:00 50.8 11.9 -0.2 50.8 50.8 7.6 8.8 6.0 249.6 238.4 0.00 0.0000000 63.0
2021-04-08 00:25:00 51.6 11.5 -0.3 51.6 51.6 7.4 9.7 7.6 104.1 251.4 0.00 0.0000000 62.9
2021-04-08 00:30:00 52.3 11.3 -0.1 52.3 52.3 6.3 11.9 8.3 265.7 251.6 0.00 0.0000000 62.9
2021-04-08 00:35:00 52.3 11.3 -0.1 52.3 52.3 9.7 9.9 8.8 143.5 247.0 0.00 0.0000000 62.8
2021-04-08 00:40:00 52.1 11.3 -0.2 52.1 52.1 11.7 11.7 8.7 245.9 246.1 0.00 0.0000000 62.7
2021-04-08 00:45:00 52.3 11.6 0.3 52.3 52.3 7.1 13.0 9.3 250.4 241.3 0.00 0.0000000 62.7
2021-04-08 00:50:00 52.1 11.4 -0.2 52.1 52.1 12.1 12.1 8.7 246.3 253.6 0.00 0.0000000 62.6
2021-04-08 00:55:00 52.0 11.6 0.2 52.0 52.0 7.8 10.8 8.3 292.3 240.7 0.00 0.0000000 62.6
2021-04-08 01:00:00 51.8 11.7 0.2 51.8 51.8 9.4 12.2 8.4 230.2 245.4 0.00 0.0000000 62.5
2021-04-08 01:05:00 51.6 11.9 0.4 51.6 51.6 10.8 11.9 8.7 262.5 250.6 0.00 0.0000000 62.5
2021-04-08 01:10:00 51.2 12.0 0.2 51.2 51.2 10.5 11.0 8.6 261.2 246.3 0.00 0.0000000 62.4
2021-04-08 01:15:00 51.3 11.9 0.2 51.3 51.3 9.0 12.4 9.4 247.6 237.8 0.00 0.0000000 62.3
2021-04-08 01:20:00 50.3 12.4 0.2 50.3 50.3 9.4 11.2 9.1 196.9 223.3 0.00 0.0000000 62.3
2021-04-08 01:25:00 50.7 12.1 0.0 50.7 50.7 9.7 13.7 9.9 245.7 230.4 0.00 0.0000000 62.2
2021-04-08 01:30:00 50.6 12.2 0.1 50.6 50.6 9.0 12.4 9.6 271.7 240.7 0.00 0.0000000 62.2
2021-04-08 01:35:00 49.8 12.7 0.4 46.5 49.8 8.1 10.6 7.9 252.5 247.0 0.00 0.0000000 62.1
2021-04-08 01:40:00 49.9 12.4 -0.1 45.1 49.9 12.8 12.8 9.3 208.4 247.9 0.00 0.0000000 62.1
2021-04-08 01:45:00 50.3 12.2 -0.2 50.3 50.3 9.9 12.8 10.2 219.4 244.5 0.00 0.0000000 62.0
2021-04-08 01:50:00 50.5 12.0 -0.3 50.5 50.5 9.6 12.6 10.2 174.7 238.2 0.00 0.0000000 62.0
2021-04-08 01:55:00 50.6 11.6 -0.9 50.6 50.6 13.0 14.2 10.9 259.0 248.1 0.00 0.0000000 61.9
2021-04-08 02:00:00 50.9 11.5 -1.0 50.9 50.9 11.0 13.3 10.3 242.6 248.1 0.00 0.0000000 61.8
2021-04-08 02:05:00 50.4 11.8 -0.7 50.4 50.4 7.2 12.1 8.7 252.6 238.3 0.00 0.0000000 61.8
2021-04-08 02:10:00 49.9 12.2 -0.4 46.2 49.9 9.2 11.9 8.7 257.6 245.4 0.00 0.0000000 61.7
2021-04-08 02:15:00 49.3 12.7 -0.1 45.6 49.3 8.5 11.5 9.7 203.8 238.9 0.00 0.0000000 61.7
2021-04-08 02:20:00 47.9 13.8 0.6 44.0 47.9 8.3 12.2 9.2 190.4 237.2 0.00 0.0000000 61.6
2021-04-08 02:25:00 46.9 13.6 -0.5 42.6 46.9 8.8 10.1 8.7 242.8 230.4 0.00 0.0000000 61.5
2021-04-08 02:30:00 46.9 14.3 0.6 42.9 46.9 8.1 10.1 7.7 246.6 233.4 0.00 0.0000000 61.4
2021-04-08 02:35:00 45.7 15.0 0.6 41.2 45.7 8.7 9.6 8.1 233.2 224.0 0.00 0.0000000 61.4
2021-04-08 02:40:00 45.5 15.0 0.5 41.1 45.5 8.3 9.4 8.1 245.1 232.6 0.00 0.0000000 61.3
2021-04-08 02:45:00 45.1 15.1 0.3 40.8 45.1 8.1 8.8 8.1 233.7 226.1 0.00 0.0000000 61.3
2021-04-08 02:50:00 45.4 14.9 0.2 41.4 45.4 7.4 9.6 7.6 240.8 232.1 0.00 0.0000000 61.2
2021-04-08 02:55:00 45.5 15.0 0.4 42.0 45.5 6.3 7.8 6.7 238.4 227.6 0.00 0.0000000 61.1
2021-04-08 03:00:00 45.1 15.1 0.2 41.0 45.1 7.4 7.8 6.8 237.6 234.8 0.00 0.0000000 61.1
2021-04-08 03:05:00 44.9 15.2 0.2 40.8 44.9 7.4 8.3 6.9 244.9 237.9 0.00 0.0000000 61.0
2021-04-08 03:10:00 44.7 15.3 0.2 41.1 44.7 6.3 8.1 6.6 237.4 231.1 0.00 0.0000000 60.9
2021-04-08 03:15:00 43.9 15.7 0.1 41.0 43.9 5.1 8.0 6.1 249.1 236.1 0.00 0.0000000 60.9
2021-04-08 03:20:00 46.3 12.9 -2.2 42.3 46.3 7.8 8.3 6.7 261.2 241.1 0.00 0.0000000 60.8
2021-04-08 03:25:00 48.2 13.0 -0.4 45.0 48.2 7.1 9.7 7.7 233.3 230.6 0.00 0.0000000 60.7
2021-04-08 03:30:00 44.5 15.3 0.1 40.4 44.5 7.4 8.0 7.0 209.7 217.2 0.00 0.0000000 60.6
2021-04-08 03:35:00 43.8 15.6 -0.1 40.8 43.8 5.1 7.2 6.5 199.3 224.4 0.00 0.0000000 60.5
2021-04-08 03:40:00 43.8 15.2 -0.6 39.8 43.8 6.9 7.1 6.5 221.7 236.6 0.00 0.0000000 60.5
2021-04-08 03:45:00 43.7 15.3 -0.6 39.9 43.7 6.3 7.4 6.5 238.3 227.0 0.00 0.0000000 60.4
2021-04-08 03:50:00 45.4 13.1 -2.4 41.3 45.4 7.8 8.8 6.6 251.7 243.8 0.00 0.0000000 60.4
2021-04-08 03:55:00 48.4 11.7 -2.5 45.2 48.4 7.1 10.3 8.1 245.5 242.7 0.00 0.0000000 60.2
2021-04-08 04:00:00 50.2 10.9 -2.6 50.2 50.2 9.6 13.9 10.7 226.0 243.0 0.00 0.0000000 60.2
2021-04-08 04:05:00 50.3 10.7 -2.9 50.3 50.3 10.3 14.9 10.8 257.7 212.1 0.00 0.0000000 60.1
2021-04-08 04:10:00 50.4 10.7 -2.8 50.4 50.4 10.3 12.8 10.4 195.0 213.2 0.00 0.0000000 60.0
2021-04-08 04:15:00 50.6 10.5 -3.1 50.6 50.6 8.3 12.4 9.8 286.9 235.4 0.00 0.0000000 59.9
2021-04-08 04:20:00 51.2 10.1 -3.5 51.2 51.2 8.7 14.2 10.0 188.1 231.0 0.00 0.0000000 59.9
2021-04-08 04:25:00 50.7 10.1 -3.8 50.7 50.7 13.0 13.0 9.4 243.9 242.7 0.00 0.0000000 59.8
2021-04-08 04:30:00 50.8 10.1 -3.8 50.8 50.8 9.0 12.2 10.1 240.4 255.0 0.00 0.0000000 59.7
2021-04-08 04:35:00 50.3 10.3 -3.6 50.3 50.3 9.7 12.4 9.6 282.8 250.3 0.00 0.0000000 59.6
2021-04-08 04:40:00 50.3 10.2 -3.9 50.3 50.3 11.0 13.0 9.9 85.6 253.7 0.00 0.0000000 59.6
2021-04-08 04:45:00 50.1 10.2 -4.0 50.1 50.1 9.2 11.7 9.7 265.1 242.1 0.00 0.0000000 59.5
2021-04-08 04:50:00 50.4 10.1 -4.0 50.4 50.4 8.3 11.9 9.8 298.0 245.5 0.00 0.0000000 59.5
2021-04-08 04:55:00 50.6 9.9 -4.3 50.6 50.6 8.1 12.4 9.7 280.1 256.2 0.00 0.0000000 59.4
2021-04-08 05:00:00 49.9 10.3 -3.9 46.5 49.9 8.5 10.3 8.4 264.5 265.4 0.00 0.0000000 59.3
2021-04-08 05:05:00 48.9 10.9 -3.6 46.1 48.9 6.5 9.0 7.2 262.4 253.0 0.00 0.0000000 59.3
2021-04-08 05:10:00 48.2 11.5 -3.0 44.9 48.2 7.2 9.0 7.4 250.5 244.8 0.00 0.0000000 59.2
2021-04-08 05:15:00 46.6 12.5 -2.5 44.3 46.6 4.9 7.2 6.2 244.9 240.3 0.00 0.0000000 59.2
2021-04-08 05:20:00 45.0 13.7 -1.9 42.4 45.0 4.9 6.2 5.3 243.0 246.1 0.00 0.0000000 59.1
2021-04-08 05:25:00 45.1 13.3 -2.3 41.6 45.1 6.5 7.2 6.1 172.7 252.2 0.00 0.0000000 59.1
2021-04-08 05:30:00 45.5 13.7 -1.5 41.8 45.5 6.7 6.9 6.0 152.3 270.5 0.00 0.0000000 59.0
2021-04-08 05:35:00 46.0 13.7 -1.0 42.7 46.0 6.3 7.8 6.5 157.6 264.0 0.00 0.0000000 58.9
2021-04-08 05:40:00 47.2 13.1 -1.0 43.2 47.2 8.5 10.1 7.9 267.7 262.4 0.00 0.0000000 58.9
2021-04-08 05:45:00 48.6 12.5 -0.9 44.5 48.6 9.4 12.2 9.7 271.3 254.7 0.00 0.0000000 58.8
2021-04-08 05:50:00 47.9 13.0 -0.7 43.7 47.9 9.0 10.6 8.9 256.7 253.3 0.00 0.0000000 58.7
2021-04-08 05:55:00 47.0 13.5 -0.5 43.3 47.0 7.6 9.2 7.7 281.7 260.2 0.00 0.0000000 58.7
2021-04-08 06:00:00 46.0 14.4 -0.1 42.9 46.0 5.8 8.5 7.1 262.8 262.7 0.00 0.0000000 58.6
2021-04-08 06:05:00 44.7 14.9 -0.4 40.1 44.7 8.5 8.5 7.3 163.7 258.9 0.00 0.0000000 58.6
2021-04-08 06:10:00 44.9 14.9 -0.2 40.9 44.9 7.2 9.9 8.4 286.2 262.0 0.00 0.0000000 58.5
2021-04-08 06:15:00 44.2 15.4 -0.1 40.0 44.2 7.2 9.4 8.2 261.1 245.0 0.00 0.0000000 58.5
2021-04-08 06:20:00 43.6 15.8 0.1 39.1 43.6 7.8 9.2 8.0 119.2 257.8 0.00 0.0000000 58.4
2021-04-08 06:25:00 43.0 16.3 0.2 38.3 43.0 7.8 9.0 7.9 257.1 256.6 0.00 0.0000000 58.4
2021-04-08 06:30:00 42.6 16.6 0.3 37.7 42.6 8.0 8.5 7.9 261.3 256.2 0.00 0.0000000 58.3
2021-04-08 06:35:00 42.2 16.9 0.4 37.6 42.2 7.4 8.7 7.4 276.8 262.0 0.00 0.0000000 58.2
2021-04-08 06:40:00 41.8 17.3 0.6 37.1 41.8 7.4 8.5 7.2 86.5 264.8 0.00 0.0000000 58.2
2021-04-08 06:45:00 41.0 18.1 0.7 36.6 41.0 6.5 7.6 6.5 282.9 269.1 0.00 0.0000000 58.1
2021-04-08 06:50:00 40.9 17.7 0.2 36.5 40.9 6.5 7.8 6.3 271.7 264.7 0.00 0.0023623 58.1
2021-04-08 06:55:00 42.0 16.7 -0.1 37.7 42.0 6.7 7.4 6.1 263.9 284.8 0.00 0.0059776 58.0
2021-04-08 07:00:00 42.2 17.2 0.7 38.8 42.2 5.5 6.7 6.0 286.8 283.0 0.00 0.0088167 58.0
2021-04-08 07:05:00 43.2 16.2 0.3 39.8 43.2 5.6 6.9 5.5 280.6 263.8 0.00 0.0119004 57.9
2021-04-08 07:10:00 44.1 15.7 0.2 40.3 44.1 6.5 6.7 5.4 250.6 272.3 0.00 0.0147447 57.8
2021-04-08 07:15:00 44.9 15.4 0.6 41.8 44.9 5.6 6.9 5.7 311.2 265.2 0.00 0.0176710 57.8
2021-04-08 07:20:00 45.1 15.9 1.3 42.3 45.1 5.1 6.5 5.4 226.3 270.4 0.00 0.0203175 57.7
2021-04-08 07:25:00 45.7 15.4 1.2 42.8 45.7 5.6 6.3 5.6 280.5 264.2 0.00 0.0232950 57.7
2021-04-08 07:30:00 46.8 14.8 1.2 43.2 46.8 7.2 7.2 5.9 264.1 271.1 0.00 0.0263310 57.6
2021-04-08 07:35:00 47.6 14.8 1.8 45.0 47.6 5.6 6.2 5.2 279.2 272.7 0.00 0.0293341 57.5
2021-04-08 07:40:00 49.2 13.9 1.8 47.5 49.2 4.6 6.0 5.1 290.4 277.5 0.00 0.0326005 57.5
2021-04-08 07:45:00 51.1 12.9 1.8 51.1 51.1 4.9 6.3 5.1 265.9 267.2 0.00 0.0358093 57.4
2021-04-08 07:50:00 52.5 12.9 2.8 52.5 52.5 4.7 6.0 4.4 269.3 272.5 0.00 0.0387224 57.4
2021-04-08 07:55:00 55.2 10.7 1.0 55.2 55.2 9.7 13.5 7.8 246.0 247.3 0.00 0.0425344 57.3
2021-04-08 08:00:00 56.8 10.2 1.1 56.8 56.8 11.7 15.6 11.1 267.4 243.8 0.00 0.0458862 57.3
2021-04-08 08:05:00 57.3 10.1 1.4 57.3 57.3 14.7 16.0 12.8 190.2 212.8 0.00 0.0490701 57.2
2021-04-08 08:10:00 57.5 10.1 1.6 57.5 57.5 16.7 17.2 13.0 240.6 223.7 0.00 0.0523574 57.2
2021-04-08 08:15:00 58.0 10.3 2.4 58.0 58.0 13.0 18.0 13.4 230.4 212.8 0.00 0.0558144 57.1
2021-04-08 08:20:00 58.3 10.2 2.4 58.3 58.3 14.4 17.8 14.0 229.5 210.8 0.00 0.0592379 57.1
2021-04-08 08:25:00 58.6 10.5 3.2 58.6 58.6 16.2 17.1 13.1 150.4 228.9 0.00 0.0624901 57.1
2021-04-08 08:30:00 58.6 10.5 3.3 58.6 58.6 13.9 17.2 13.7 248.6 225.2 0.00 0.0659390 57.0
2021-04-08 08:35:00 59.0 10.4 3.3 59.0 59.0 14.7 19.0 14.5 243.8 233.0 0.00 0.0695277 57.0
2021-04-08 08:40:00 59.3 10.5 3.8 59.3 59.3 11.2 17.6 14.5 267.3 215.9 0.00 0.0728325 57.0
2021-04-08 08:45:00 59.6 10.1 3.1 59.6 59.6 17.2 18.0 14.5 256.2 233.5 0.00 0.0765128 57.0
2021-04-08 08:50:00 59.9 10.3 3.7 59.9 59.9 16.0 18.1 13.9 234.2 230.8 0.00 0.0799966 57.0
2021-04-08 08:55:00 59.9 10.3 3.8 59.9 59.9 13.5 17.2 14.2 268.9 227.1 0.00 0.0834163 57.0
2021-04-08 09:00:00 59.9 10.3 3.8 59.9 59.9 18.1 20.1 14.8 252.0 235.2 0.00 0.0868813 56.9
2021-04-08 09:05:00 60.0 10.2 3.7 60.0 60.0 15.1 19.0 15.3 231.7 237.0 0.00 0.0903393 56.9
2021-04-08 09:10:00 60.5 10.3 4.3 60.5 60.5 14.0 17.6 14.3 254.7 227.3 0.00 0.0938372 56.9
2021-04-08 09:15:00 61.3 10.0 4.2 61.3 61.3 16.0 17.4 12.9 247.5 224.4 0.00 0.0972335 57.0
2021-04-08 09:20:00 61.3 10.1 4.3 61.3 61.3 16.7 19.2 15.0 259.2 230.0 0.00 0.1003195 57.0
2021-04-08 09:25:00 61.8 9.7 3.8 61.8 61.8 16.0 18.1 13.7 235.9 226.7 0.00 0.1035575 57.0
2021-04-08 09:30:00 61.9 9.9 4.5 61.9 61.9 17.2 18.7 15.1 247.1 235.9 0.00 0.1065258 57.1
2021-04-08 09:35:00 62.3 10.2 5.5 62.3 62.3 14.0 19.6 14.9 238.0 236.3 0.00 0.1097423 57.1
2021-04-08 09:40:00 62.5 10.2 5.6 62.5 62.5 14.6 19.4 14.9 238.4 236.8 0.00 0.1127451 57.2
2021-04-08 09:45:00 62.7 10.4 6.2 62.7 62.7 13.1 19.8 14.5 31.7 200.8 0.00 0.1156025 57.2
2021-04-08 09:50:00 63.1 10.4 6.5 63.1 63.1 14.6 18.5 15.0 214.1 238.2 0.00 0.1186982 57.3
2021-04-08 09:55:00 63.4 10.2 6.3 63.4 63.4 18.5 20.5 16.5 199.3 210.3 0.00 0.1217341 57.4
2021-04-08 10:00:00 64.3 10.4 7.3 64.3 64.3 18.5 18.9 14.6 217.2 219.8 0.00 0.1246233 57.4
2021-04-08 10:05:00 64.8 10.0 6.9 64.8 64.8 16.5 21.9 16.2 245.0 227.7 0.00 0.1274974 57.5
2021-04-08 10:10:00 65.3 10.2 7.7 65.3 65.3 14.6 20.3 15.2 80.5 239.0 0.00 0.1302172 57.6
2021-04-08 10:15:00 65.0 9.9 6.9 65.0 65.0 16.2 21.5 16.5 257.0 191.2 0.00 0.1327874 57.7
2021-04-08 10:20:00 65.2 10.1 7.3 65.2 65.2 20.1 22.6 17.3 183.7 204.2 0.00 0.1355211 57.8
2021-04-08 10:25:00 65.6 9.9 7.2 65.6 65.6 20.8 22.8 18.5 221.1 216.7 0.00 0.1382801 57.9
2021-04-08 10:30:00 65.4 10.3 8.0 65.4 65.4 16.0 21.9 18.0 230.9 214.9 0.00 0.1405724 58.0
2021-04-08 10:35:00 65.9 10.3 8.3 65.9 65.9 11.7 27.6 18.1 160.1 221.2 0.00 0.1433505 58.2
2021-04-08 10:40:00 65.9 10.4 8.6 65.9 65.9 12.6 21.5 17.6 231.1 212.3 0.00 0.1455278 58.3
2021-04-08 10:45:00 66.6 9.5 7.2 66.6 66.6 19.0 22.6 17.7 49.9 201.8 0.00 0.1478940 58.4
2021-04-08 10:50:00 65.3 9.9 7.1 65.3 65.3 23.3 26.5 21.2 220.5 203.8 0.00 0.1501561 58.6
2021-04-08 10:55:00 66.4 10.1 8.4 66.4 66.4 13.1 24.2 17.3 16.2 160.8 0.00 0.1527459 58.7
2021-04-08 11:00:00 66.4 9.8 7.5 66.4 66.4 12.4 27.1 18.0 230.5 158.9 0.00 0.1544725 58.9
2021-04-08 11:05:00 66.4 9.9 7.9 66.4 66.4 14.9 24.2 16.2 96.4 92.9 0.00 0.1561755 59.0
2021-04-08 11:10:00 66.8 9.6 7.6 66.8 66.8 18.3 22.4 18.1 183.6 191.3 0.00 0.1585378 59.2
2021-04-08 11:15:00 66.4 9.6 7.2 66.4 66.4 18.9 23.5 18.7 9.5 137.6 0.00 0.1604138 59.4
2021-04-08 11:20:00 67.2 9.6 7.8 67.2 67.2 15.1 22.4 16.4 198.4 102.2 0.00 0.1624017 59.5
2021-04-08 11:25:00 67.5 9.4 7.6 67.5 67.5 18.5 24.2 17.1 65.1 139.6 0.00 0.1639301 59.7
2021-04-08 11:30:00 67.5 9.5 7.9 67.5 67.5 18.5 22.4 17.5 67.1 125.0 0.00 0.1655426 59.9
2021-04-08 11:35:00 67.2 9.3 7.2 67.2 67.2 17.6 24.8 19.2 148.1 199.8 0.00 0.1670766 60.1
2021-04-08 11:40:00 67.8 9.1 7.0 67.8 67.8 18.1 20.1 16.9 248.5 214.8 0.00 0.1689077 60.3
2021-04-08 11:45:00 67.8 9.6 8.3 67.8 67.8 11.9 23.0 15.5 108.9 190.0 0.00 0.1698463 60.5
2021-04-08 11:50:00 68.3 8.9 7.1 68.3 68.3 14.9 20.8 15.9 228.4 202.0 0.00 0.1710887 60.7
2021-04-08 11:55:00 68.4 8.9 7.1 68.4 68.4 18.1 20.5 15.8 67.1 234.1 0.00 0.1719677 60.9
2021-04-08 12:00:00 68.7 8.7 6.7 68.7 68.7 16.5 21.9 15.7 264.3 223.8 0.00 0.1731508 61.1
2021-04-08 12:05:00 69.5 8.9 7.9 69.5 69.5 15.5 19.0 14.5 252.1 226.4 0.00 0.1742435 61.3
2021-04-08 12:10:00 68.7 9.1 7.9 68.7 68.7 16.4 24.6 20.0 208.1 203.6 0.00 0.1749165 61.5
2021-04-08 12:15:00 68.9 8.8 7.3 68.9 68.9 19.6 25.1 18.3 142.4 218.4 0.00 0.1766669 61.7
2021-04-08 12:20:00 69.4 8.8 7.5 69.4 69.4 18.3 24.9 16.6 260.3 222.2 0.00 0.1770155 62.0
2021-04-08 12:25:00 69.7 9.1 8.5 69.7 69.7 15.3 18.9 14.3 80.1 205.2 0.00 0.1780925 62.2
2021-04-08 12:30:00 69.3 9.0 7.9 69.3 69.3 19.2 23.5 16.5 264.8 232.3 0.00 0.1773905 62.4
2021-04-08 12:35:00 69.3 9.2 8.4 69.3 69.3 16.0 20.8 17.8 136.4 189.5 0.00 0.1784891 62.6
2021-04-08 12:40:00 69.3 9.2 8.4 69.3 69.3 18.1 23.3 17.7 101.6 198.4 0.00 0.1791620 62.9
2021-04-08 12:45:00 69.7 9.1 8.5 69.7 69.7 13.0 23.7 16.3 261.0 202.5 0.00 0.1798966 63.1
2021-04-08 12:50:00 70.0 8.9 8.2 70.0 70.0 20.3 20.3 15.3 153.0 212.9 0.00 0.1779838 63.4
2021-04-08 12:55:00 69.5 9.0 8.1 69.5 69.5 18.1 24.0 18.6 205.2 168.4 0.00 0.1796266 63.6
2021-04-08 13:00:00 69.5 9.4 9.1 69.5 69.5 15.8 20.6 16.8 83.5 162.0 0.00 0.1788959 63.8
2021-04-08 13:05:00 69.5 9.0 8.2 69.5 69.5 11.0 21.7 17.3 60.6 143.0 0.00 0.1791315 64.0
2021-04-08 13:10:00 70.0 9.0 8.4 70.0 70.0 23.9 23.9 15.3 33.1 163.1 0.00 0.1785750 64.2
2021-04-08 13:15:00 70.9 8.8 8.6 70.9 70.9 14.4 28.3 18.0 269.6 183.8 0.00 0.1786523 64.4
2021-04-08 13:20:00 70.4 8.8 8.3 70.4 70.4 15.5 21.2 14.8 225.2 217.6 0.00 0.1787312 64.5
2021-04-08 13:25:00 70.1 8.8 8.0 70.1 70.1 22.4 25.5 18.6 246.1 201.0 0.00 0.1787712 64.7
2021-04-08 13:30:00 69.2 9.3 8.6 69.2 69.2 21.4 29.6 20.4 190.8 212.0 0.00 0.1783662 64.9
2021-04-08 13:35:00 69.3 9.1 8.2 69.3 69.3 17.1 24.4 19.5 196.0 197.4 0.00 0.1779543 65.0
2021-04-08 13:40:00 70.2 9.2 9.2 70.2 70.2 14.2 24.0 16.7 210.2 194.4 0.00 0.1771636 65.2
2021-04-08 13:45:00 70.0 9.0 8.6 70.0 70.0 15.1 25.1 19.0 234.7 213.0 0.00 0.1766859 65.4
2021-04-08 13:50:00 70.8 9.3 9.8 70.8 70.8 13.0 17.8 12.5 227.0 201.6 0.00 0.1749541 65.6
2021-04-08 13:55:00 70.6 9.5 10.1 70.6 70.6 10.3 19.0 13.5 138.5 186.9 0.00 0.1731908 65.7
2021-04-08 14:00:00 70.8 9.7 10.8 70.8 70.8 16.0 23.0 16.4 215.6 203.3 0.00 0.1724873 65.9
2021-04-08 14:05:00 69.6 10.0 10.5 69.6 69.6 8.3 18.9 11.1 196.2 211.2 0.00 0.1704833 66.0
2021-04-08 14:10:00 70.3 9.7 10.4 70.3 70.3 13.7 23.2 16.4 269.7 220.3 0.00 0.1695892 66.2
2021-04-08 14:15:00 71.9 9.6 11.3 71.9 71.9 11.0 24.2 15.0 65.3 215.7 0.00 0.1687661 66.3
2021-04-08 14:20:00 73.2 9.0 10.9 73.2 73.2 17.2 19.4 15.9 113.5 197.6 0.00 0.1677810 66.5
2021-04-08 14:25:00 72.7 9.1 10.8 72.7 72.7 18.0 20.6 16.1 216.3 180.4 0.00 0.1646428 66.7
2021-04-08 14:30:00 70.8 10.1 11.6 70.8 70.8 10.3 23.7 16.2 222.6 186.2 0.00 0.1628665 66.8
2021-04-08 14:35:00 72.3 9.5 11.5 72.3 72.3 16.0 21.7 14.0 70.6 186.7 0.00 0.1634511 67.0
2021-04-08 14:40:00 71.7 9.2 10.4 71.7 71.7 19.4 26.2 18.3 166.0 192.5 0.00 0.1634573 67.1
2021-04-08 14:45:00 71.3 10.1 12.1 71.3 71.3 12.6 26.0 19.0 268.1 206.3 0.00 0.1624960 67.3
2021-04-08 14:50:00 72.5 9.3 11.0 72.5 72.5 20.1 22.1 16.2 255.5 205.9 0.00 0.1605066 67.4
2021-04-08 14:55:00 72.1 9.4 11.0 72.1 72.1 13.5 26.0 21.1 199.8 187.4 0.00 0.1582051 67.6
2021-04-08 15:00:00 72.9 8.8 10.3 72.9 72.9 24.6 24.9 17.7 102.0 192.6 0.00 0.1562313 67.8
2021-04-08 15:05:00 72.5 9.0 10.4 72.5 72.5 20.1 30.1 23.2 233.3 207.6 0.00 0.1547715 68.0
2021-04-08 15:10:00 73.1 9.2 11.2 73.1 73.1 16.7 24.2 17.1 105.1 186.5 0.00 0.1521677 68.1
2021-04-08 15:15:00 73.0 9.1 11.1 73.0 73.0 17.8 26.5 21.2 260.9 162.6 0.00 0.1407293 68.3
2021-04-08 15:20:00 72.6 9.5 11.8 72.6 72.6 17.1 28.7 22.1 272.7 128.2 0.00 0.1442974 68.5
2021-04-08 15:25:00 73.2 9.3 11.8 73.2 73.2 21.2 25.8 18.0 40.2 148.5 0.00 0.1449893 68.6
2021-04-08 15:30:00 73.3 9.6 12.4 73.3 73.3 16.9 23.7 18.3 76.7 103.9 0.00 0.1430268 68.8
2021-04-08 15:35:00 72.1 9.9 12.3 72.1 72.1 18.3 30.1 22.1 76.2 137.7 0.00 0.1396801 69.0
2021-04-08 15:40:00 73.0 9.7 12.5 73.0 73.0 16.9 20.6 14.7 154.9 149.9 0.00 0.1393042 69.1
2021-04-08 15:45:00 73.2 9.9 13.1 73.2 73.2 12.8 23.5 18.4 63.1 156.3 0.00 0.1392444 69.2
2021-04-08 15:50:00 73.0 9.7 12.5 73.0 73.0 22.6 22.6 16.3 173.8 146.8 0.00 0.1305303 69.3
2021-04-08 15:55:00 73.9 9.3 12.3 73.9 73.9 19.6 24.2 16.9 218.4 238.8 0.00 0.1373115 69.5
2021-04-08 16:00:00 73.4 9.5 12.3 73.4 73.4 18.0 24.9 19.4 102.4 156.8 0.00 0.1286293 69.6
2021-04-08 16:05:00 72.8 9.6 12.2 72.8 72.8 22.3 28.3 22.9 14.5 48.5 0.00 0.1248885 69.7
2021-04-08 16:10:00 73.6 9.3 12.1 73.6 73.6 22.3 22.3 18.7 41.1 66.9 0.00 0.1227391 69.9
2021-04-08 16:15:00 73.5 9.6 12.7 73.5 73.5 15.6 29.0 20.0 102.8 81.7 0.00 0.1189846 70.0
2021-04-08 16:20:00 72.8 9.7 12.4 72.8 72.8 23.5 36.0 25.1 235.3 171.7 0.00 0.1160772 70.1
2021-04-08 16:25:00 73.4 9.7 12.9 73.4 73.4 19.0 30.3 22.9 75.0 199.3 0.00 0.1123189 70.2
2021-04-08 16:30:00 73.4 9.8 13.0 73.4 73.4 13.0 21.7 18.6 181.9 147.4 0.00 0.1079034 70.3
2021-04-08 16:35:00 73.7 9.4 12.3 73.7 73.7 17.6 29.4 21.4 14.1 111.6 0.00 0.1054821 70.4
2021-04-08 16:40:00 74.4 9.4 13.0 74.4 74.4 14.7 18.1 15.1 26.2 109.5 0.00 0.1018951 70.5
2021-04-08 16:45:00 73.3 9.6 12.4 73.3 73.3 26.9 27.2 22.6 195.8 127.4 0.00 0.0988901 70.6
2021-04-08 16:50:00 73.3 9.9 13.2 73.3 73.3 22.3 28.3 22.5 51.7 72.9 0.00 0.0953074 70.6
2021-04-08 16:55:00 73.1 9.9 13.1 73.1 73.1 21.4 26.9 19.4 233.6 109.9 0.00 0.0732522 70.7
2021-04-08 17:00:00 73.0 10.1 13.3 73.0 73.0 19.2 24.2 20.6 69.6 187.4 0.00 0.0853938 70.8
2021-04-08 17:05:00 72.6 10.4 13.7 72.6 72.6 12.1 22.1 17.3 148.2 161.6 0.00 0.0718221 70.9
2021-04-08 17:10:00 72.3 10.3 13.2 72.3 72.3 13.7 25.5 19.7 49.8 201.4 0.00 0.0534038 70.9
2021-04-08 17:15:00 72.0 10.2 12.8 72.0 72.0 15.6 20.8 16.4 197.2 202.4 0.00 0.0467059 71.0
2021-04-08 17:20:00 72.3 10.0 12.7 72.3 72.3 13.0 21.2 16.0 252.0 169.0 0.00 0.0606028 71.0
2021-04-08 17:25:00 72.2 10.3 13.1 72.2 72.2 19.8 21.9 17.2 196.0 209.8 0.00 0.0601647 71.1
2021-04-08 17:30:00 71.7 11.0 14.3 71.7 71.7 19.8 20.3 17.5 167.7 202.5 0.00 0.0462248 71.1
2021-04-08 17:35:00 71.7 11.1 14.5 71.7 71.7 14.4 24.8 19.5 213.9 196.3 0.00 0.0590647 71.2
2021-04-08 17:40:00 72.3 10.9 14.7 72.3 72.3 22.8 26.4 18.7 77.3 184.0 0.00 0.0687257 71.2
2021-04-08 17:45:00 71.3 11.3 14.7 71.3 71.3 17.2 28.3 19.6 216.3 196.3 0.00 0.0450353 71.2
2021-04-08 17:50:00 71.1 12.3 16.5 71.1 71.1 19.4 25.6 19.3 220.3 193.9 0.00 0.0596231 71.2
2021-04-08 17:55:00 70.6 12.1 15.8 70.6 70.6 21.7 26.9 21.4 199.7 190.9 0.00 0.0465441 71.2
2021-04-08 18:00:00 69.8 12.6 16.1 69.8 69.8 22.3 26.9 21.3 209.2 197.2 0.00 0.0320815 71.2
2021-04-08 18:05:00 69.3 13.0 16.3 69.3 69.3 11.9 22.1 17.2 216.4 197.9 0.00 0.0224153 71.2
2021-04-08 18:10:00 69.2 13.2 16.5 69.2 69.2 16.7 24.6 17.7 204.3 212.1 0.00 0.0206804 71.2
2021-04-08 18:15:00 69.0 13.2 16.3 69.0 69.0 14.2 16.7 13.4 222.1 209.4 0.00 0.0180927 71.2
2021-04-08 18:20:00 68.9 13.0 16.0 68.9 68.9 12.1 19.9 15.8 205.8 211.7 0.00 0.0163572 71.2
2021-04-08 18:25:00 68.8 13.2 16.3 68.8 68.8 14.4 18.5 14.2 225.7 214.6 0.00 0.0151778 71.2
2021-04-08 18:30:00 68.6 13.3 16.2 68.6 68.6 9.7 18.7 13.6 193.5 222.7 0.00 0.0143297 71.1
2021-04-08 18:35:00 68.5 13.4 16.3 68.5 68.5 14.9 17.4 13.8 199.7 207.3 0.00 0.0132706 71.1
2021-04-08 18:40:00 68.3 13.5 16.3 68.3 68.3 10.6 18.1 13.0 203.4 212.8 0.00 0.0125268 71.1
2021-04-08 18:45:00 68.3 12.2 14.0 68.3 68.3 18.9 18.9 14.0 217.4 219.0 0.00 0.0111586 71.1
2021-04-08 18:50:00 68.2 12.2 13.9 68.2 68.2 19.0 20.8 15.6 238.5 220.3 0.00 0.0087051 71.0
2021-04-08 18:55:00 67.9 12.4 14.2 67.9 67.9 10.5 19.0 13.7 233.3 229.8 0.00 0.0054811 71.0
2021-04-08 19:00:00 67.4 12.9 14.6 67.4 67.4 10.8 14.9 11.2 233.2 216.9 0.00 0.0028937 70.9
2021-04-08 19:05:00 67.7 12.4 14.0 67.7 67.7 16.5 25.8 15.0 215.0 223.6 0.00 0.0020744 70.9
2021-04-08 19:10:00 67.2 12.9 14.5 67.2 67.2 10.1 18.9 12.3 197.3 228.3 0.00 0.0007425 70.9
2021-04-08 19:15:00 67.2 12.7 14.2 67.2 67.2 12.8 20.5 13.9 192.7 218.8 0.00 0.0003433 70.8
2021-04-08 19:20:00 66.7 13.2 14.6 66.7 66.7 9.9 14.6 10.3 237.7 216.3 0.00 0.0000000 70.7
2021-04-08 19:25:00 66.1 13.7 15.0 66.1 66.1 4.7 11.7 8.0 230.4 215.1 0.00 0.0000000 70.7
2021-04-08 19:30:00 64.9 14.5 15.3 64.9 64.9 5.8 7.4 5.9 251.4 225.4 0.00 0.0000000 70.6
2021-04-08 19:35:00 63.8 15.4 15.8 63.8 63.8 5.6 7.1 5.6 221.1 218.0 0.00 0.0000000 70.5
2021-04-08 19:40:00 63.0 15.9 15.9 63.0 63.0 5.3 6.0 5.4 221.7 217.1 0.00 0.0000000 70.4
2021-04-08 19:45:00 62.3 16.6 16.3 62.3 62.3 4.9 5.1 4.7 205.5 205.1 0.00 0.0000000 70.4
2021-04-08 19:50:00 61.8 16.9 16.4 61.8 61.8 4.4 5.5 4.7 205.9 203.3 0.00 0.0000000 70.3
2021-04-08 19:55:00 61.1 17.4 16.5 61.1 61.1 4.7 4.7 4.4 217.3 199.3 0.00 0.0000000 70.2
2021-04-08 20:00:00 60.6 17.8 16.6 60.6 60.6 3.8 4.9 4.5 218.9 205.8 0.00 0.0000000 70.1
2021-04-08 20:05:00 59.9 18.3 16.7 59.9 59.9 4.4 4.4 4.1 167.5 215.6 0.00 0.0000000 70.1
2021-04-08 20:10:00 59.4 18.6 16.6 59.4 59.4 4.6 6.0 4.5 139.0 214.9 0.00 0.0000000 70.0
2021-04-08 20:15:00 59.7 18.4 16.6 59.7 59.7 4.4 6.9 5.1 183.0 224.9 0.00 0.0000000 69.9
2021-04-08 20:20:00 59.4 18.8 16.8 59.4 59.4 4.4 5.6 5.1 230.4 229.1 0.00 0.0000000 69.8
2021-04-08 20:25:00 58.3 19.6 16.9 58.3 58.3 4.6 5.1 4.6 213.9 235.5 0.00 0.0000000 69.7
2021-04-08 20:30:00 58.5 19.3 16.7 58.5 58.5 4.9 5.6 5.0 237.7 221.6 0.00 0.0000000 69.6
2021-04-08 20:35:00 58.4 19.5 16.9 58.4 58.4 4.7 5.3 4.7 141.4 234.8 0.00 0.0000000 69.5
2021-04-08 20:40:00 58.8 18.8 16.3 58.8 58.8 5.6 9.0 5.5 187.4 233.2 0.00 0.0000000 69.4
2021-04-08 20:45:00 58.2 19.4 16.6 58.2 58.2 5.3 5.8 4.5 214.1 224.4 0.00 0.0000000 69.4
2021-04-08 20:50:00 57.9 18.6 15.4 57.9 57.9 7.1 7.1 5.1 75.4 209.5 0.00 0.0000000 69.3
2021-04-08 20:55:00 59.5 17.2 14.9 59.5 59.5 6.3 7.1 5.4 142.6 221.0 0.00 0.0000000 69.1
2021-04-08 21:00:00 61.3 15.3 13.7 61.3 61.3 8.8 8.8 6.9 227.1 215.8 0.00 0.0000000 69.1
2021-04-08 21:05:00 62.3 14.7 13.6 62.3 62.3 7.4 11.0 7.8 169.2 207.3 0.00 0.0000000 69.0
2021-04-08 21:10:00 62.9 14.0 12.9 62.9 62.9 8.5 14.9 8.7 243.6 235.4 0.00 0.0000000 68.8
2021-04-08 21:15:00 63.4 13.3 12.2 63.4 63.4 8.8 11.7 9.0 215.1 214.1 0.00 0.0000000 68.8
2021-04-08 21:20:00 64.1 12.7 11.7 64.1 64.1 9.7 13.1 10.3 170.3 160.5 0.00 0.0000000 68.7
2021-04-08 21:25:00 64.2 12.6 11.5 64.2 64.2 13.7 13.7 10.2 90.3 99.7 0.00 0.0000000 68.6
2021-04-08 21:30:00 64.1 12.4 11.1 64.1 64.1 13.1 16.0 12.2 104.9 235.5 0.00 0.0000000 68.5
2021-04-08 21:35:00 63.8 12.4 10.9 63.8 63.8 13.7 14.4 11.1 257.4 234.7 0.00 0.0000000 68.4
2021-04-08 21:40:00 63.5 12.6 11.0 63.5 63.5 10.8 14.7 11.2 273.6 227.8 0.00 0.0000000 68.3
2021-04-08 21:45:00 63.4 12.7 11.1 63.4 63.4 7.2 15.1 10.9 285.5 219.2 0.00 0.0000000 68.2
2021-04-08 21:50:00 63.4 12.5 10.7 63.4 63.4 13.3 16.0 11.9 196.0 229.8 0.00 0.0000000 68.1
2021-04-08 21:55:00 63.1 12.7 10.9 63.1 63.1 11.0 14.4 11.3 187.8 197.5 0.00 0.0000000 68.1
2021-04-08 22:00:00 62.9 12.7 10.8 62.9 62.9 10.8 14.4 11.3 99.7 151.9 0.00 0.0000000 68.0
2021-04-08 22:05:00 62.6 13.1 11.3 62.6 62.6 8.5 12.1 10.2 72.9 197.0 0.00 0.0000000 67.9
2021-04-08 22:10:00 62.3 13.1 10.9 62.3 62.3 9.9 12.1 9.9 269.9 178.7 0.00 0.0000000 67.8
2021-04-08 22:15:00 62.4 13.0 10.9 62.4 62.4 9.9 11.5 9.6 292.5 251.6 0.00 0.0000000 67.7
2021-04-08 22:20:00 62.2 13.1 10.9 62.2 62.2 8.8 11.9 9.4 269.4 244.4 0.00 0.0000000 67.6
2021-04-08 22:25:00 62.0 13.2 10.8 62.0 62.0 10.5 11.5 9.4 218.7 210.8 0.00 0.0000000 67.6
2021-04-08 22:30:00 61.9 13.2 10.8 61.9 61.9 8.1 13.0 10.0 277.0 201.3 0.00 0.0000000 67.5
2021-04-08 22:35:00 61.8 13.2 10.7 61.8 61.8 8.1 13.0 10.1 214.2 218.7 0.00 0.0000000 67.4
2021-04-08 22:40:00 61.9 13.1 10.6 61.9 61.9 11.3 16.0 11.0 205.7 229.1 0.00 0.0000000 67.3
2021-04-08 22:45:00 61.6 13.3 10.8 61.6 61.6 11.0 15.5 10.7 117.7 210.3 0.00 0.0000000 67.2
2021-04-08 22:50:00 60.9 13.7 10.9 60.9 60.9 10.3 13.1 9.5 257.9 223.3 0.00 0.0000000 67.2
2021-04-08 22:55:00 60.5 14.0 11.0 60.5 60.5 8.3 13.0 9.3 255.7 232.6 0.00 0.0000000 67.1
2021-04-08 23:00:00 60.8 13.9 11.0 60.8 60.8 10.6 14.6 10.8 12.9 210.8 0.00 0.0000000 67.0
2021-04-08 23:05:00 60.5 14.0 11.1 60.5 60.5 10.1 14.7 10.6 185.1 217.4 0.00 0.0000000 66.9
2021-04-08 23:10:00 60.5 14.1 11.2 60.5 60.5 9.4 12.2 10.2 253.5 207.6 0.00 0.0000000 66.8
2021-04-08 23:15:00 60.4 14.2 11.3 60.4 60.4 10.5 14.9 10.5 256.5 224.2 0.00 0.0000000 66.8
2021-04-08 23:20:00 59.7 14.5 11.2 59.7 59.7 9.4 12.8 9.8 189.6 228.2 0.00 0.0000000 66.7
2021-04-08 23:25:00 59.1 15.0 11.4 59.1 59.1 10.3 11.3 9.2 197.1 230.5 0.00 0.0000000 66.6
2021-04-08 23:30:00 59.0 15.1 11.4 59.0 59.0 8.8 12.2 9.7 245.5 231.8 0.00 0.0000000 66.5
2021-04-08 23:35:00 58.5 15.4 11.5 58.5 58.5 8.5 10.6 8.6 249.6 238.8 0.00 0.0000000 66.4
2021-04-08 23:40:00 58.4 15.5 11.6 58.4 58.4 9.0 12.1 8.3 269.0 238.8 0.00 0.0000000 66.3
2021-04-08 23:45:00 59.1 15.3 11.9 59.1 59.1 9.6 12.4 9.2 275.9 244.1 0.00 0.0000000 66.3
2021-04-08 23:50:00 59.3 15.2 11.9 59.3 59.3 8.8 12.1 10.2 11.6 231.2 0.00 0.0000000 66.2
2021-04-08 23:55:00 59.0 15.5 12.0 59.0 59.0 10.5 11.3 9.5 243.1 228.1 0.00 0.0000000 66.1
2021-04-09 00:00:00 58.6 15.8 12.2 58.6 58.6 7.4 13.0 10.0 116.4 225.4 0.00 0.0000000 66.0

Data is courtesy of the NM Climate Center. DO NOT USE IN LEGAL PROCEEDINGS.